sensor_id;sensor_type;location;lat;lon;timestamp;pressure;altitude;pressure_sealevel;temperature;humidity
50518;BME280;37075;44.084;2.962;2023-07-31T00:02:33;98074.25;;;15.70;53.75
50518;BME280;37075;44.084;2.962;2023-07-31T00:05:19;98071.78;;;15.65;53.36
50518;BME280;37075;44.084;2.962;2023-07-31T00:08:06;98073.63;;;15.61;53.71
50518;BME280;37075;44.084;2.962;2023-07-31T00:10:52;98073.88;;;15.56;53.41
50518;BME280;37075;44.084;2.962;2023-07-31T00:13:38;98076.09;;;15.50;53.61
50518;BME280;37075;44.084;2.962;2023-07-31T00:16:24;98070.09;;;15.45;54.19
50518;BME280;37075;44.084;2.962;2023-07-31T00:19:10;98079.41;;;15.40;54.54
50518;BME280;37075;44.084;2.962;2023-07-31T00:21:55;98075.31;;;15.34;53.85
50518;BME280;37075;44.084;2.962;2023-07-31T00:24:43;98075.59;;;15.29;54.48
50518;BME280;37075;44.084;2.962;2023-07-31T00:27:29;98077.38;;;15.21;57.23
50518;BME280;37075;44.084;2.962;2023-07-31T00:30:15;98072.94;;;15.17;56.53
50518;BME280;37075;44.084;2.962;2023-07-31T00:33:02;98074.81;;;15.13;55.49
50518;BME280;37075;44.084;2.962;2023-07-31T00:35:48;98065.66;;;15.08;55.19
50518;BME280;37075;44.084;2.962;2023-07-31T00:38:34;98062.84;;;15.05;55.07
50518;BME280;37075;44.084;2.962;2023-07-31T00:41:21;98056.44;;;15.01;55.60
50518;BME280;37075;44.084;2.962;2023-07-31T00:44:07;98058.69;;;14.95;55.56
50518;BME280;37075;44.084;2.962;2023-07-31T00:46:53;98054.69;;;14.93;55.24
50518;BME280;37075;44.084;2.962;2023-07-31T00:49:39;98042.38;;;14.87;55.82
50518;BME280;37075;44.084;2.962;2023-07-31T00:52:25;98050.50;;;14.83;55.69
50518;BME280;37075;44.084;2.962;2023-07-31T00:55:10;98046.06;;;14.78;56.11
50518;BME280;37075;44.084;2.962;2023-07-31T00:57:57;98047.50;;;14.72;57.01
50518;BME280;37075;44.084;2.962;2023-07-31T01:00:43;98046.59;;;14.68;56.96
50518;BME280;37075;44.084;2.962;2023-07-31T01:03:30;98046.88;;;14.63;57.16
50518;BME280;37075;44.084;2.962;2023-07-31T01:06:18;98044.03;;;14.60;58.17
50518;BME280;37075;44.084;2.962;2023-07-31T01:09:09;98043.59;;;14.58;56.56
50518;BME280;37075;44.084;2.962;2023-07-31T01:11:57;98045.78;;;14.52;56.82
50518;BME280;37075;44.084;2.962;2023-07-31T01:15:02;98049.22;;;14.49;56.94
50518;BME280;37075;44.084;2.962;2023-07-31T01:17:49;98042.84;;;14.45;57.81
50518;BME280;37075;44.084;2.962;2023-07-31T01:20:35;98041.13;;;14.40;57.47
50518;BME280;37075;44.084;2.962;2023-07-31T01:26:24;98046.41;;;14.33;57.40
50518;BME280;37075;44.084;2.962;2023-07-31T01:29:16;98048.59;;;14.28;57.49
50518;BME280;37075;44.084;2.962;2023-07-31T01:32:05;98050.78;;;14.22;58.51
50518;BME280;37075;44.084;2.962;2023-07-31T01:34:52;98036.97;;;14.18;59.26
50518;BME280;37075;44.084;2.962;2023-07-31T01:37:39;98031.06;;;14.16;58.05
50518;BME280;37075;44.084;2.962;2023-07-31T01:40:24;98036.09;;;14.14;59.07
50518;BME280;37075;44.084;2.962;2023-07-31T01:43:12;98031.31;;;14.11;59.64
50518;BME280;37075;44.084;2.962;2023-07-31T01:45:57;98030.41;;;14.07;59.41
50518;BME280;37075;44.084;2.962;2023-07-31T01:48:43;98036.25;;;14.06;59.39
50518;BME280;37075;44.084;2.962;2023-07-31T01:51:29;98023.56;;;14.01;59.27
50518;BME280;37075;44.084;2.962;2023-07-31T01:54:18;98030.53;;;13.99;58.53
50518;BME280;37075;44.084;2.962;2023-07-31T01:57:04;98032.03;;;13.96;58.78
50518;BME280;37075;44.084;2.962;2023-07-31T01:59:51;98033.88;;;13.92;59.41
50518;BME280;37075;44.084;2.962;2023-07-31T02:02:38;98030.25;;;13.88;59.05
50518;BME280;37075;44.084;2.962;2023-07-31T02:05:24;98024.22;;;13.82;59.79
50518;BME280;37075;44.084;2.962;2023-07-31T02:08:10;98030.84;;;13.81;59.05
50518;BME280;37075;44.084;2.962;2023-07-31T02:10:55;98027.97;;;13.78;59.20
50518;BME280;37075;44.084;2.962;2023-07-31T02:13:41;98023.53;;;13.73;59.96
50518;BME280;37075;44.084;2.962;2023-07-31T02:16:28;98035.63;;;13.72;60.54
50518;BME280;37075;44.084;2.962;2023-07-31T02:19:14;98032.44;;;13.70;60.21
50518;BME280;37075;44.084;2.962;2023-07-31T02:22:00;98032.78;;;13.69;60.78
50518;BME280;37075;44.084;2.962;2023-07-31T02:24:46;98037.03;;;13.66;60.40
50518;BME280;37075;44.084;2.962;2023-07-31T02:27:32;98034.63;;;13.65;60.54
50518;BME280;37075;44.084;2.962;2023-07-31T02:30:18;98034.53;;;13.61;60.65
50518;BME280;37075;44.084;2.962;2023-07-31T02:33:05;98037.97;;;13.58;61.37
50518;BME280;37075;44.084;2.962;2023-07-31T02:35:51;98024.97;;;13.55;61.79
50518;BME280;37075;44.084;2.962;2023-07-31T02:38:37;98016.25;;;13.53;61.20
50518;BME280;37075;44.084;2.962;2023-07-31T02:41:24;98025.97;;;13.50;61.32
50518;BME280;37075;44.084;2.962;2023-07-31T02:44:10;98021.19;;;13.47;61.59
50518;BME280;37075;44.084;2.962;2023-07-31T02:46:58;98018.00;;;13.45;63.26
50518;BME280;37075;44.084;2.962;2023-07-31T02:49:45;98007.72;;;13.42;62.17
50518;BME280;37075;44.084;2.962;2023-07-31T02:52:31;98022.56;;;13.41;61.34
50518;BME280;37075;44.084;2.962;2023-07-31T02:55:17;98009.91;;;13.37;63.07
50518;BME280;37075;44.084;2.962;2023-07-31T02:58:03;98017.66;;;13.35;62.05
50518;BME280;37075;44.084;2.962;2023-07-31T03:00:49;98029.31;;;13.32;62.59
50518;BME280;37075;44.084;2.962;2023-07-31T03:03:35;98028.41;;;13.27;63.36
50518;BME280;37075;44.084;2.962;2023-07-31T03:06:22;98025.19;;;13.25;62.71
50518;BME280;37075;44.084;2.962;2023-07-31T03:09:08;98022.25;;;13.18;65.76
50518;BME280;37075;44.084;2.962;2023-07-31T03:11:54;98019.94;;;13.20;63.41
50518;BME280;37075;44.084;2.962;2023-07-31T03:14:40;98022.56;;;13.17;64.64
50518;BME280;37075;44.084;2.962;2023-07-31T03:17:25;98017.06;;;13.17;63.35
50518;BME280;37075;44.084;2.962;2023-07-31T03:20:11;98028.03;;;13.17;63.01
50518;BME280;37075;44.084;2.962;2023-07-31T03:22:59;98016.16;;;13.13;63.23
50518;BME280;37075;44.084;2.962;2023-07-31T03:25:55;98024.72;;;13.11;62.85
50518;BME280;37075;44.084;2.962;2023-07-31T03:28:41;98022.69;;;13.08;62.92
50518;BME280;37075;44.084;2.962;2023-07-31T03:31:27;98006.13;;;13.05;63.62
50518;BME280;37075;44.084;2.962;2023-07-31T03:34:12;98016.63;;;13.03;63.00
50518;BME280;37075;44.084;2.962;2023-07-31T03:36:59;98025.06;;;12.97;65.27
50518;BME280;37075;44.084;2.962;2023-07-31T03:39:46;98025.84;;;12.98;63.20
50518;BME280;37075;44.084;2.962;2023-07-31T03:42:32;98030.53;;;12.97;63.30
50518;BME280;37075;44.084;2.962;2023-07-31T03:45:18;98033.59;;;12.96;63.66
50518;BME280;37075;44.084;2.962;2023-07-31T03:48:04;98034.75;;;12.95;63.68
50518;BME280;37075;44.084;2.962;2023-07-31T03:50:50;98029.63;;;12.93;63.02
50518;BME280;37075;44.084;2.962;2023-07-31T03:53:35;98030.31;;;12.90;63.24
50518;BME280;37075;44.084;2.962;2023-07-31T03:56:23;98040.34;;;12.86;63.50
50518;BME280;37075;44.084;2.962;2023-07-31T03:59:08;98037.16;;;12.84;63.12
50518;BME280;37075;44.084;2.962;2023-07-31T04:01:54;98048.44;;;12.83;63.39
50518;BME280;37075;44.084;2.962;2023-07-31T04:04:40;98044.44;;;12.80;62.76
50518;BME280;37075;44.084;2.962;2023-07-31T04:07:26;98038.06;;;12.76;63.20
50518;BME280;37075;44.084;2.962;2023-07-31T04:10:12;98030.50;;;12.73;63.22
50518;BME280;37075;44.084;2.962;2023-07-31T04:12:59;98038.25;;;12.71;62.98
50518;BME280;37075;44.084;2.962;2023-07-31T04:15:47;98042.47;;;12.69;63.20
50518;BME280;37075;44.084;2.962;2023-07-31T04:18:33;98035.72;;;12.66;63.30
50518;BME280;37075;44.084;2.962;2023-07-31T04:21:19;98045.44;;;12.63;62.96
50518;BME280;37075;44.084;2.962;2023-07-31T04:24:05;98039.50;;;12.61;63.63
50518;BME280;37075;44.084;2.962;2023-07-31T04:26:51;98052.94;;;12.54;64.03
50518;BME280;37075;44.084;2.962;2023-07-31T04:29:39;98054.88;;;12.54;63.96
50518;BME280;37075;44.084;2.962;2023-07-31T04:32:27;98054.06;;;12.53;63.78
50518;BME280;37075;44.084;2.962;2023-07-31T04:35:13;98059.88;;;12.52;63.27
50518;BME280;37075;44.084;2.962;2023-07-31T04:37:59;98057.81;;;12.49;64.42
50518;BME280;37075;44.084;2.962;2023-07-31T04:40:45;98063.28;;;12.49;63.71
50518;BME280;37075;44.084;2.962;2023-07-31T04:43:30;98057.34;;;12.47;63.41
50518;BME280;37075;44.084;2.962;2023-07-31T04:46:18;98062.34;;;12.45;63.55
50518;BME280;37075;44.084;2.962;2023-07-31T04:49:04;98061.88;;;12.43;64.21
50518;BME280;37075;44.084;2.962;2023-07-31T04:51:50;98066.56;;;12.42;63.72
50518;BME280;37075;44.084;2.962;2023-07-31T04:54:35;98073.63;;;12.43;63.81
50518;BME280;37075;44.084;2.962;2023-07-31T04:57:21;98079.44;;;12.42;64.76
50518;BME280;37075;44.084;2.962;2023-07-31T05:00:07;98083.31;;;12.41;64.16
50518;BME280;37075;44.084;2.962;2023-07-31T05:02:55;98081.03;;;12.43;64.34
50518;BME280;37075;44.084;2.962;2023-07-31T05:05:41;98086.50;;;12.43;64.57
50518;BME280;37075;44.084;2.962;2023-07-31T05:08:27;98068.97;;;12.44;64.85
50518;BME280;37075;44.084;2.962;2023-07-31T05:11:13;98078.75;;;12.45;64.82
50518;BME280;37075;44.084;2.962;2023-07-31T05:13:59;98074.56;;;12.47;64.57
50518;BME280;37075;44.084;2.962;2023-07-31T05:16:45;98069.88;;;12.48;64.55
50518;BME280;37075;44.084;2.962;2023-07-31T05:19:32;98075.84;;;12.50;64.82
50518;BME280;37075;44.084;2.962;2023-07-31T05:22:18;98074.38;;;12.52;65.18
50518;BME280;37075;44.084;2.962;2023-07-31T05:25:04;98081.91;;;12.55;65.62
50518;BME280;37075;44.084;2.962;2023-07-31T05:27:50;98076.09;;;12.57;65.18
50518;BME280;37075;44.084;2.962;2023-07-31T05:30:36;98071.88;;;12.59;66.25
50518;BME280;37075;44.084;2.962;2023-07-31T05:33:22;98072.78;;;12.63;65.40
50518;BME280;37075;44.084;2.962;2023-07-31T05:36:09;98069.03;;;12.68;66.31
50518;BME280;37075;44.084;2.962;2023-07-31T05:38:55;98071.53;;;12.73;65.47
50518;BME280;37075;44.084;2.962;2023-07-31T05:41:41;98070.56;;;12.78;66.04
50518;BME280;37075;44.084;2.962;2023-07-31T05:44:27;98064.06;;;12.82;68.19
50518;BME280;37075;44.084;2.962;2023-07-31T05:47:13;98071.72;;;12.89;66.48
50518;BME280;37075;44.084;2.962;2023-07-31T05:49:58;98066.81;;;12.94;66.52
50518;BME280;37075;44.084;2.962;2023-07-31T05:52:46;98075.28;;;13.02;65.77
50518;BME280;37075;44.084;2.962;2023-07-31T05:55:32;98066.50;;;13.08;65.99
50518;BME280;37075;44.084;2.962;2023-07-31T05:58:18;98065.13;;;13.14;66.07
50518;BME280;37075;44.084;2.962;2023-07-31T06:01:03;98062.53;;;13.18;69.36
50518;BME280;37075;44.084;2.962;2023-07-31T06:03:49;98059.66;;;13.26;67.08
50518;BME280;37075;44.084;2.962;2023-07-31T06:06:36;98048.16;;;13.33;68.13
50518;BME280;37075;44.084;2.962;2023-07-31T06:09:23;98053.50;;;13.42;66.76
50518;BME280;37075;44.084;2.962;2023-07-31T06:12:10;98049.38;;;13.48;68.07
50518;BME280;37075;44.084;2.962;2023-07-31T06:14:57;98053.50;;;13.54;69.81
50518;BME280;37075;44.084;2.962;2023-07-31T06:17:42;98060.44;;;13.64;67.18
50518;BME280;37075;44.084;2.962;2023-07-31T06:20:28;98059.50;;;13.72;66.94
50518;BME280;37075;44.084;2.962;2023-07-31T06:23:14;98060.53;;;13.79;68.64
50518;BME280;37075;44.084;2.962;2023-07-31T06:26:02;98056.84;;;13.87;68.02
50518;BME280;37075;44.084;2.962;2023-07-31T06:28:48;98052.47;;;13.99;66.81
50518;BME280;37075;44.084;2.962;2023-07-31T06:31:33;98048.81;;;14.07;67.74
50518;BME280;37075;44.084;2.962;2023-07-31T06:34:19;98042.47;;;14.18;67.53
50518;BME280;37075;44.084;2.962;2023-07-31T06:37:05;98037.63;;;14.28;67.70
50518;BME280;37075;44.084;2.962;2023-07-31T06:39:51;98040.22;;;14.36;67.64
50518;BME280;37075;44.084;2.962;2023-07-31T06:42:38;98034.03;;;14.39;68.99
50518;BME280;37075;44.084;2.962;2023-07-31T06:45:24;98027.00;;;14.54;67.97
50518;BME280;37075;44.084;2.962;2023-07-31T06:48:10;98029.59;;;14.63;66.94
50518;BME280;37075;44.084;2.962;2023-07-31T06:50:56;98023.22;;;14.74;66.84
50518;BME280;37075;44.084;2.962;2023-07-31T06:53:42;98012.88;;;14.84;66.33
50518;BME280;37075;44.084;2.962;2023-07-31T06:56:29;98018.97;;;14.93;66.17
50518;BME280;37075;44.084;2.962;2023-07-31T06:59:16;98017.72;;;15.06;65.44
50518;BME280;37075;44.084;2.962;2023-07-31T07:02:02;98004.25;;;15.17;65.56
50518;BME280;37075;44.084;2.962;2023-07-31T07:04:48;98011.94;;;15.27;65.34
50518;BME280;37075;44.084;2.962;2023-07-31T07:07:35;98003.59;;;15.39;64.99
50518;BME280;37075;44.084;2.962;2023-07-31T07:10:20;98008.53;;;15.49;64.94
50518;BME280;37075;44.084;2.962;2023-07-31T07:13:06;98005.72;;;15.61;64.13
50518;BME280;37075;44.084;2.962;2023-07-31T07:15:54;98000.44;;;15.72;63.71
50518;BME280;37075;44.084;2.962;2023-07-31T07:18:40;98010.94;;;15.86;63.35
50518;BME280;37075;44.084;2.962;2023-07-31T07:21:26;98008.78;;;15.95;63.43
50518;BME280;37075;44.084;2.962;2023-07-31T07:24:12;98005.06;;;16.07;63.34
50518;BME280;37075;44.084;2.962;2023-07-31T07:26:58;97999.44;;;16.19;62.95
50518;BME280;37075;44.084;2.962;2023-07-31T07:29:45;97999.25;;;16.31;62.87
50518;BME280;37075;44.084;2.962;2023-07-31T07:32:32;97990.78;;;16.40;62.91
50518;BME280;37075;44.084;2.962;2023-07-31T07:35:18;97993.00;;;16.53;62.47
50518;BME280;37075;44.084;2.962;2023-07-31T07:38:04;97990.91;;;16.66;62.33
50518;BME280;37075;44.084;2.962;2023-07-31T07:40:50;97986.78;;;16.79;62.06
50518;BME280;37075;44.084;2.962;2023-07-31T07:43:38;97983.03;;;16.91;61.54
50518;BME280;37075;44.084;2.962;2023-07-31T07:46:24;97985.63;;;17.03;61.36
50518;BME280;37075;44.084;2.962;2023-07-31T07:49:11;97978.31;;;17.14;61.12
50518;BME280;37075;44.084;2.962;2023-07-31T07:51:57;97973.38;;;17.27;60.92
50518;BME280;37075;44.084;2.962;2023-07-31T07:54:43;97975.53;;;17.41;60.94
50518;BME280;37075;44.084;2.962;2023-07-31T07:57:29;97968.66;;;17.54;60.71
50518;BME280;37075;44.084;2.962;2023-07-31T08:00:14;97973.94;;;17.66;60.16
50518;BME280;37075;44.084;2.962;2023-07-31T08:03:01;97969.00;;;17.79;60.34
50518;BME280;37075;44.084;2.962;2023-07-31T08:05:48;97966.00;;;17.91;59.88
50518;BME280;37075;44.084;2.962;2023-07-31T08:08:34;97962.63;;;18.05;59.69
50518;BME280;37075;44.084;2.962;2023-07-31T08:11:20;97958.81;;;18.16;59.52
50518;BME280;37075;44.084;2.962;2023-07-31T08:14:07;97962.91;;;18.30;59.22
50518;BME280;37075;44.084;2.962;2023-07-31T08:16:53;97966.19;;;18.42;58.66
50518;BME280;37075;44.084;2.962;2023-07-31T08:19:39;97964.34;;;18.54;58.35
50518;BME280;37075;44.084;2.962;2023-07-31T08:22:27;97961.72;;;18.68;58.41
50518;BME280;37075;44.084;2.962;2023-07-31T08:25:13;97962.25;;;18.81;56.80
50518;BME280;37075;44.084;2.962;2023-07-31T08:27:59;97959.59;;;18.98;56.33
50518;BME280;37075;44.084;2.962;2023-07-31T08:30:45;97953.44;;;19.16;56.06
50518;BME280;37075;44.084;2.962;2023-07-31T08:33:31;97945.63;;;19.28;55.19
50518;BME280;37075;44.084;2.962;2023-07-31T08:36:16;97943.72;;;19.43;55.01
50518;BME280;37075;44.084;2.962;2023-07-31T08:39:04;97936.34;;;19.58;55.03
50518;BME280;37075;44.084;2.962;2023-07-31T08:41:50;97931.25;;;19.70;53.14
50518;BME280;37075;44.084;2.962;2023-07-31T08:44:35;97936.06;;;19.84;51.53
50518;BME280;37075;44.084;2.962;2023-07-31T08:47:22;97922.25;;;19.98;51.34
50518;BME280;37075;44.084;2.962;2023-07-31T08:50:09;97914.00;;;20.16;49.62
50518;BME280;37075;44.084;2.962;2023-07-31T08:52:55;97914.06;;;20.38;48.99
50518;BME280;37075;44.084;2.962;2023-07-31T08:55:43;97901.06;;;20.56;48.79
50518;BME280;37075;44.084;2.962;2023-07-31T08:58:30;97901.44;;;20.76;47.64
50518;BME280;37075;44.084;2.962;2023-07-31T09:01:16;97902.63;;;20.96;46.27
50518;BME280;37075;44.084;2.962;2023-07-31T09:04:02;97897.47;;;21.12;45.31
50518;BME280;37075;44.084;2.962;2023-07-31T09:06:50;97893.88;;;21.30;45.55
50518;BME280;37075;44.084;2.962;2023-07-31T09:09:41;97891.84;;;21.44;44.40
50518;BME280;37075;44.084;2.962;2023-07-31T09:12:28;97894.59;;;21.62;44.91
50518;BME280;37075;44.084;2.962;2023-07-31T09:15:14;97890.13;;;21.79;44.43
50518;BME280;37075;44.084;2.962;2023-07-31T09:18:01;97894.03;;;21.96;43.99
50518;BME280;37075;44.084;2.962;2023-07-31T09:20:59;97894.38;;;22.08;44.37
50518;BME280;37075;44.084;2.962;2023-07-31T09:23:46;97887.56;;;22.20;43.88
50518;BME280;37075;44.084;2.962;2023-07-31T09:26:33;97872.81;;;22.30;44.08
50518;BME280;37075;44.084;2.962;2023-07-31T09:29:21;97870.38;;;22.39;43.42
50518;BME280;37075;44.084;2.962;2023-07-31T09:32:09;97871.88;;;22.51;38.61
50518;BME280;37075;44.084;2.962;2023-07-31T09:35:01;97873.31;;;22.70;37.04
50518;BME280;37075;44.084;2.962;2023-07-31T09:37:48;97866.06;;;22.83;38.46
50518;BME280;37075;44.084;2.962;2023-07-31T09:40:34;97877.84;;;22.98;39.60
50518;BME280;37075;44.084;2.962;2023-07-31T09:43:21;97880.13;;;23.10;37.30
50518;BME280;37075;44.084;2.962;2023-07-31T09:46:14;97878.78;;;23.25;36.95
50518;BME280;37075;44.084;2.962;2023-07-31T09:49:07;97879.81;;;23.42;36.31
50518;BME280;37075;44.084;2.962;2023-07-31T09:51:53;97882.00;;;23.58;34.57
50518;BME280;37075;44.084;2.962;2023-07-31T09:54:39;97884.28;;;23.66;33.57
50518;BME280;37075;44.084;2.962;2023-07-31T09:57:25;97878.97;;;23.79;32.98
50518;BME280;37075;44.084;2.962;2023-07-31T10:00:14;97875.25;;;23.89;32.49
50518;BME280;37075;44.084;2.962;2023-07-31T10:03:02;97869.56;;;24.00;30.66
50518;BME280;37075;44.084;2.962;2023-07-31T10:05:49;97876.66;;;24.05;31.99
50518;BME280;37075;44.084;2.962;2023-07-31T10:08:37;97865.75;;;24.14;30.83
50518;BME280;37075;44.084;2.962;2023-07-31T10:11:24;97869.91;;;24.33;31.05
50518;BME280;37075;44.084;2.962;2023-07-31T10:14:13;97866.94;;;24.43;31.51
50518;BME280;37075;44.084;2.962;2023-07-31T10:16:59;97860.78;;;24.55;31.58
50518;BME280;37075;44.084;2.962;2023-07-31T10:19:46;97861.38;;;24.67;31.56
50518;BME280;37075;44.084;2.962;2023-07-31T10:22:33;97858.22;;;24.65;31.52
50518;BME280;37075;44.084;2.962;2023-07-31T10:25:19;97854.06;;;24.76;31.36
50518;BME280;37075;44.084;2.962;2023-07-31T10:28:05;97851.66;;;24.78;31.45
50518;BME280;37075;44.084;2.962;2023-07-31T10:30:52;97850.28;;;24.86;30.76
50518;BME280;37075;44.084;2.962;2023-07-31T10:33:38;97849.72;;;24.95;31.34
50518;BME280;37075;44.084;2.962;2023-07-31T10:36:25;97848.50;;;25.00;31.25
50518;BME280;37075;44.084;2.962;2023-07-31T10:42:13;97838.06;;;25.24;30.47
50518;BME280;37075;44.084;2.962;2023-07-31T10:44:59;97846.53;;;25.40;29.85
50518;BME280;37075;44.084;2.962;2023-07-31T10:47:45;97838.44;;;25.45;29.53
50518;BME280;37075;44.084;2.962;2023-07-31T10:50:32;97828.56;;;25.61;30.86
50518;BME280;37075;44.084;2.962;2023-07-31T10:53:26;97826.00;;;25.70;30.44
50518;BME280;37075;44.084;2.962;2023-07-31T10:56:12;97829.94;;;25.72;30.69
50518;BME280;37075;44.084;2.962;2023-07-31T10:59:03;97823.25;;;25.86;30.77
50518;BME280;37075;44.084;2.962;2023-07-31T11:01:52;97823.81;;;25.97;31.41
50518;BME280;37075;44.084;2.962;2023-07-31T11:04:38;97819.66;;;26.05;30.27
50518;BME280;37075;44.084;2.962;2023-07-31T11:07:26;97822.44;;;26.05;29.38
50518;BME280;37075;44.084;2.962;2023-07-31T11:10:32;97816.50;;;26.03;28.72
50518;BME280;37075;44.084;2.962;2023-07-31T11:13:18;97824.72;;;26.27;28.98
50518;BME280;37075;44.084;2.962;2023-07-31T11:16:04;97820.69;;;26.28;27.75
50518;BME280;37075;44.084;2.962;2023-07-31T11:18:51;97811.03;;;26.32;28.62
50518;BME280;37075;44.084;2.962;2023-07-31T11:21:37;97808.78;;;26.43;28.21
50518;BME280;37075;44.084;2.962;2023-07-31T11:24:23;97811.13;;;26.45;27.76
50518;BME280;37075;44.084;2.962;2023-07-31T11:27:10;97799.94;;;26.61;28.18
50518;BME280;37075;44.084;2.962;2023-07-31T11:29:59;97798.88;;;26.71;27.73
50518;BME280;37075;44.084;2.962;2023-07-31T11:32:46;97801.03;;;26.80;28.33
50518;BME280;37075;44.084;2.962;2023-07-31T11:35:32;97793.00;;;26.82;27.61
50518;BME280;37075;44.084;2.962;2023-07-31T11:38:22;97785.75;;;26.85;27.54
50518;BME280;37075;44.084;2.962;2023-07-31T11:41:08;97775.22;;;26.89;27.42
50518;BME280;37075;44.084;2.962;2023-07-31T11:44:00;97763.94;;;26.92;27.03
50518;BME280;37075;44.084;2.962;2023-07-31T11:46:47;97760.69;;;26.94;26.93
50518;BME280;37075;44.084;2.962;2023-07-31T11:49:32;97770.75;;;27.08;27.20
50518;BME280;37075;44.084;2.962;2023-07-31T11:52:22;97768.66;;;27.12;26.88
50518;BME280;37075;44.084;2.962;2023-07-31T11:55:09;97767.44;;;27.25;27.30
50518;BME280;37075;44.084;2.962;2023-07-31T11:57:56;97754.38;;;27.35;25.91
50518;BME280;37075;44.084;2.962;2023-07-31T12:00:44;97743.06;;;27.51;26.57
50518;BME280;37075;44.084;2.962;2023-07-31T12:03:30;97744.97;;;27.54;26.63
50518;BME280;37075;44.084;2.962;2023-07-31T12:06:16;97738.84;;;27.59;26.46
50518;BME280;37075;44.084;2.962;2023-07-31T12:09:05;97736.75;;;27.63;26.04
50518;BME280;37075;44.084;2.962;2023-07-31T12:11:51;97732.03;;;27.73;26.43
50518;BME280;37075;44.084;2.962;2023-07-31T12:14:37;97723.19;;;27.87;26.47
50518;BME280;37075;44.084;2.962;2023-07-31T12:17:29;97729.25;;;27.86;25.61
50518;BME280;37075;44.084;2.962;2023-07-31T12:20:15;97728.56;;;27.94;25.60
50518;BME280;37075;44.084;2.962;2023-07-31T12:23:01;97724.50;;;28.08;25.96
50518;BME280;37075;44.084;2.962;2023-07-31T12:25:47;97715.75;;;28.19;25.36
50518;BME280;37075;44.084;2.962;2023-07-31T12:28:37;97708.78;;;28.23;25.53
50518;BME280;37075;44.084;2.962;2023-07-31T12:31:23;97723.94;;;28.13;26.33
50518;BME280;37075;44.084;2.962;2023-07-31T12:34:17;97710.72;;;28.14;25.63
50518;BME280;37075;44.084;2.962;2023-07-31T12:37:03;97696.44;;;28.34;26.32
50518;BME280;37075;44.084;2.962;2023-07-31T12:39:51;97702.88;;;28.56;26.81
50518;BME280;37075;44.084;2.962;2023-07-31T12:42:37;97694.75;;;28.36;26.45
50518;BME280;37075;44.084;2.962;2023-07-31T12:45:23;97696.53;;;28.43;26.26
50518;BME280;37075;44.084;2.962;2023-07-31T12:48:09;97689.59;;;28.35;26.72
50518;BME280;37075;44.084;2.962;2023-07-31T12:50:56;97686.69;;;28.38;25.97
50518;BME280;37075;44.084;2.962;2023-07-31T12:53:42;97687.00;;;28.40;26.50
50518;BME280;37075;44.084;2.962;2023-07-31T12:56:28;97676.19;;;28.51;26.15
50518;BME280;37075;44.084;2.962;2023-07-31T12:59:14;97671.69;;;28.54;26.42
50518;BME280;37075;44.084;2.962;2023-07-31T13:02:00;97674.47;;;28.67;26.06
50518;BME280;37075;44.084;2.962;2023-07-31T13:04:46;97668.19;;;28.63;25.49
50518;BME280;37075;44.084;2.962;2023-07-31T13:07:33;97665.03;;;28.82;25.88
50518;BME280;37075;44.084;2.962;2023-07-31T13:10:20;97666.66;;;29.36;26.62
50518;BME280;37075;44.084;2.962;2023-07-31T13:13:05;97656.63;;;29.57;25.26
50518;BME280;37075;44.084;2.962;2023-07-31T13:15:51;97657.59;;;30.13;24.31
50518;BME280;37075;44.084;2.962;2023-07-31T13:18:37;97656.25;;;30.54;24.10
50518;BME280;37075;44.084;2.962;2023-07-31T13:21:23;97642.91;;;31.27;23.59
50518;BME280;37075;44.084;2.962;2023-07-31T13:24:10;97651.16;;;31.82;21.93
50518;BME280;37075;44.084;2.962;2023-07-31T13:26:56;97655.50;;;32.64;21.36
50518;BME280;37075;44.084;2.962;2023-07-31T13:29:43;97640.09;;;33.19;20.21
50518;BME280;37075;44.084;2.962;2023-07-31T13:32:29;97630.41;;;33.84;19.90
50518;BME280;37075;44.084;2.962;2023-07-31T13:35:15;97624.63;;;34.54;19.97
50518;BME280;37075;44.084;2.962;2023-07-31T13:38:00;97620.66;;;35.44;19.83
50518;BME280;37075;44.084;2.962;2023-07-31T13:40:47;97613.13;;;36.15;19.05
50518;BME280;37075;44.084;2.962;2023-07-31T13:43:33;97615.56;;;36.39;17.84
50518;BME280;37075;44.084;2.962;2023-07-31T13:46:19;97620.94;;;37.02;18.39
50518;BME280;37075;44.084;2.962;2023-07-31T13:49:05;97615.47;;;36.93;17.07
50518;BME280;37075;44.084;2.962;2023-07-31T13:51:51;97625.91;;;37.35;16.23
50518;BME280;37075;44.084;2.962;2023-07-31T13:54:37;97616.53;;;37.18;16.23
50518;BME280;37075;44.084;2.962;2023-07-31T13:57:24;97610.13;;;37.51;16.27
50518;BME280;37075;44.084;2.962;2023-07-31T14:00:11;97609.31;;;37.73;15.81
50518;BME280;37075;44.084;2.962;2023-07-31T14:03:15;97598.22;;;37.75;15.77
50518;BME280;37075;44.084;2.962;2023-07-31T14:06:01;97599.97;;;37.89;16.10
50518;BME280;37075;44.084;2.962;2023-07-31T14:08:48;97595.69;;;38.41;14.85
50518;BME280;37075;44.084;2.962;2023-07-31T14:11:34;97603.78;;;38.83;15.00
50518;BME280;37075;44.084;2.962;2023-07-31T14:14:21;97608.88;;;39.32;14.99
50518;BME280;37075;44.084;2.962;2023-07-31T14:17:06;97606.84;;;39.27;13.70
50518;BME280;37075;44.084;2.962;2023-07-31T14:19:52;97606.72;;;39.02;14.64
50518;BME280;37075;44.084;2.962;2023-07-31T14:22:38;97603.00;;;39.48;14.19
50518;BME280;37075;44.084;2.962;2023-07-31T14:25:24;97584.47;;;40.15;14.20
50518;BME280;37075;44.084;2.962;2023-07-31T14:28:10;97578.16;;;40.60;13.99
50518;BME280;37075;44.084;2.962;2023-07-31T14:30:57;97585.84;;;40.71;13.74
50518;BME280;37075;44.084;2.962;2023-07-31T14:33:43;97579.94;;;41.01;13.43
50518;BME280;37075;44.084;2.962;2023-07-31T14:36:29;97582.97;;;41.40;13.13
50518;BME280;37075;44.084;2.962;2023-07-31T14:39:15;97585.53;;;41.57;13.06
50518;BME280;37075;44.084;2.962;2023-07-31T14:42:01;97568.50;;;42.44;13.37
50518;BME280;37075;44.084;2.962;2023-07-31T14:44:47;97571.72;;;43.08;12.77
50518;BME280;37075;44.084;2.962;2023-07-31T14:47:34;97574.78;;;42.90;12.03
50518;BME280;37075;44.084;2.962;2023-07-31T14:50:20;97569.97;;;43.05;12.37